Detall de PIREP

Printer-friendly versionPDF version

[2010/06/23 10:00:00]
Flight IATA:CT3233
Pilot Number:011
Company ICAO:CAT
Aircraft Type:B738/F
PAX:160
Departing Airport: LEMD
Destination Airport: LEPA
Alternate Airport:LEBL
Online: VATSIM
Route:NANDO UW107 CLS UN733 GATOS
Flight Level:FL310
No Slew and time accel
No pause
Crash detect
Detect pilot in Cockpit between each 30 and 45 minutes
10:00 Zero fuel Weight: 134501 Lbs, Fuel Weight: 15198 Lbs
10:00 VATSIM:LEMD 230930Z VRB03KT CAVOK 24/07 Q1018 NOSIG
10:00 VATSIM:LEPA 230930Z 20004KT 120V260 9999 FEW020 24/13 Q1019 NOSIG
10:01 Parking Brakes off
10:09 Take-off
10:09 Take off Weight: 149006 Lbs
10:09 Wind: 194º @ 001 Knots Heading: 359º
10:09 POS N40º 30´ 57´´ W003º 33´ 33´´
10:09 Flaps:5 at 160 Knots
10:09 Gear Up: 161 Knots
10:11 Flaps:4 at 146 Knots
10:11 Flaps:3 at 148 Knots
10:11 Flaps:2 at 150 Knots
10:11 Flaps:1 at 153 Knots
10:11 Flaps:0 at 153 K
nots
10:23 TOC
10:23 Fuel Weight: 11465 Lb
10:24 Wind:355º@001 Knots Heading: 102º Ground Speed: 425 Knots Altitude 31043 ft
10:39 Wind:070º@024 Knots Heading: 120º Ground Speed: 455 Knots Altitude 31141 ft
10:45 TOD
10:45 Fuel Weight: 9370 Lb
10:54 Wind:151º@012 Knots Heading: 091º Ground Speed: 359 Knots Altitude 14721 ft
11:08 Flaps:1 at 233 Knots
11:08 Flaps:2 at 231 Knots
11:09 Wind:228º@015 Knots Heading: 233º Ground Speed: 217 Knots Altitude 4511 ft
11:09 Flaps:3 at 209 Knots
11:09 Flaps:4 at 206 Knots
11:10 Flaps:5 at 191 Knots
11:10 Flaps:6 at 171 Knots
11:10 Gear Down: 171 Knots
11:11 Flaps:7 at 145 Knots
11:11 Flaps:8 at 140 Knots
11:15 TouchDown:Rate -259 ft/min Speed: 115 Knots
11:15 VATSIM:LEPA 231030Z 23008KT 190V260 9999 FEW020 24/13 Q1019 NOSIG
11:15 Land
11:15 Wind:228º@008 Knots
11:15 Heading: 239º
11:15 Flight Duration: 01:06
11:15
Landing Weight: 142203 Lbs
11:15 POS N39º 33´ 11´´ E002º 43´ 24´´
11:17 Parking brakes on
11:17 Block to Block Duration: 01:16
11:17 Final Fuel: 7513 Lbls
11:17 Spent Fuel: 7685 Lbls
11:17 Flight Length: 383 NM
11:17 TOD Land Length: 147 NM

Exportar CSV

Powered by Drupal - Modified by Danger4k